Ellicott City, Maryland
Current Conditions -  °F | °C
As of 2:54 PM on Friday 28 Nov 2014 (Local Time) from KBWI Reporting Station
Scattered Clouds Scattered Clouds  
Wind Chill: 30°   Ceiling: Unl
Heat Index: 38°   Visibility: 10mi
Dew Point: 15°   Wind: 14mph
Humidity: 39%   Direction: 320°NW
Pressure: 30.25"   Gusts: 24mph
Location:  39.27°N, 76.8°W
Report Text: KBWI 281954Z 32012G21KT 10SM SCT050 SCT250 03/M09 A3025 RMK AO2 SLP245 T00331094
Loading
Personal Weather Stations






























Interactive Weather Map New forecast layout! Learn more

10-Day Weather Forecast

Advertisements
Track Severe Weather on mobile